Tukertown, Arkansas
Current Conditions -  °F | °C
As of 3:53 AM on Thursday 23 Oct 2014 (Local Time) from KHKA Reporting Station
Clear Clear  
Wind Chill: 42°   Ceiling: Unl
Heat Index: 42°   Visibility: 10mi
Dew Point: 40°   Wind: 3mph
Humidity: 92%   Direction: 80°E
Pressure: 30.19"   Gusts: NA
Location:  35.809°N, 89.9565°W
Report Text: KHKA 230853Z AUTO 08003KT 10SM CLR 06/04 A3019 RMK AO2 SLP221 T00560044 58006
Loading
Personal Weather Stations






























Interactive Weather Map
Tropical Storm Tracking
New forecast layout! Learn more

10-Day Weather Forecast

Advertisements
Track Severe Weather on mobile